首页
METAR-TAF:

METAR-TAF

机场 :

安托法加斯塔, 智利

纬度: 23-26S, 经度: 070-26W, 海拔: 135米

当前天气观测

该预报发布于16分钟前的13:00 UTC
风速6节,风向西南
温度 20°C
湿度 64%
气压 1015 hPa
能见度10公里或以上
少量云层高于2500英尺

METAR: SCFA 171300Z 22006KT 9999 FEW025 20/13 Q1015 NOSIG

时间: 10:16 (13:16 UTC)

预报

该预报发布于3小时和6分钟前的10:10 UTC
预报有效从17日的 12点(UTC)到 18日的 12点(UTC)
风速4节,风向
能见度10公里或以上
散云层高于2500英尺
成为
从 17日的 14点(UTC)到 17日的 16点(UTC)
风速14节,风向南转西南
少量云层高于2500英尺
成为
从 18日的 00点(UTC)到 18日的 02点(UTC)
风速4节,风向
多云层高于3000英尺

TAF: SCFA 171010Z 1712/1812 17004KT 9999 SCT025 TX22/1717Z TN19/1805Z BECMG 1714/1716 21014KT FEW025 BECMG 1800/1802 17004KT BKN030

超过4000个机场的气象观测和天气预报(METAR&TAF报告)。

可查询的气象台以黄色和红色小点在地图上表示。

将鼠标移到小点上方,可查看气象台名称。

然后点击查看天气观测和预报。

如需切换地图:点击带黑十字的绿色按钮放大地图;点击带横线的绿色按钮缩小地图;或者点击绿色箭头查看邻近地区的地图。


METAR-TAF: